Terminal Aerodrome Forecast
Issued by NWS Omaha/Valley, NE

Home | Current Version | Previous Version | Text Only | Print | Product List | Glossary Off
Versions: 1 2 3 4 5 6 7 8 9 10 11 12 13 14 15 16 17 18 19

000
FTUS43 KOAX 210520
TAFOFK
TAF
KOFK 210520Z 2106/2206 17015G26KT P6SM BKN150
     FM210800 17018KT P6SM VCTS BKN090CB
     FM211000 17017G25KT P6SM VCTS BKN025CB
     FM211600 32015KT P6SM VCTS BKN035CB
     FM212000 32015KT P6SM BKN110
     FM220500 29005KT P6SM FEW250=

USA.gov is the U.S. government's official web portal to all federal, state and local government web resources and services.